createdAt,value
2022-10-05T00:00:12.857Z,9.279916
2022-10-05T00:01:12.845Z,9.279860
2022-10-05T00:02:12.951Z,9.279851
2022-10-05T00:03:12.793Z,9.279942
2022-10-05T00:04:12.816Z,9.279864
2022-10-05T00:05:12.842Z,9.279880
2022-10-05T00:06:12.736Z,9.279937
2022-10-05T00:07:12.759Z,9.279927
2022-10-05T00:08:12.738Z,9.279983
2022-10-05T00:09:12.679Z,9.279959
2022-10-05T00:10:12.665Z,9.279863
2022-10-05T00:11:12.649Z,9.279870
2022-10-05T00:12:12.630Z,9.279902
2022-10-05T00:13:12.644Z,9.279964
2022-10-05T00:14:12.588Z,9.279963
2022-10-05T00:15:12.644Z,9.279914
2022-10-05T00:16:12.583Z,9.279926
2022-10-05T00:17:12.531Z,9.279968
2022-10-05T00:18:12.549Z,9.279953
2022-10-05T00:19:12.498Z,9.279896
2022-10-05T00:20:12.477Z,9.279896
2022-10-05T00:21:12.466Z,9.279945
2022-10-05T00:22:12.453Z,9.280024
2022-10-05T00:23:12.461Z,9.279981
2022-10-05T00:24:12.415Z,9.279929
2022-10-05T00:25:12.401Z,9.279919
2022-10-05T00:26:12.378Z,9.279939
2022-10-05T00:27:12.358Z,9.279933
2022-10-05T00:28:12.396Z,9.279917
2022-10-05T00:29:12.327Z,9.279877
2022-10-05T00:30:12.313Z,9.279924
2022-10-05T00:31:12.352Z,9.279987
2022-10-05T00:32:12.336Z,9.279960
2022-10-05T00:33:12.274Z,9.279926
2022-10-05T00:34:12.235Z,9.279940
2022-10-05T00:35:12.217Z,9.279929
2022-10-05T00:36:12.195Z,9.279872
2022-10-05T00:37:12.183Z,9.279891
2022-10-05T00:38:12.197Z,9.279911
2022-10-05T00:39:12.149Z,9.279918
2022-10-05T00:40:12.135Z,9.279929
2022-10-05T00:41:12.110Z,9.279909
2022-10-05T00:42:12.088Z,9.279870
2022-10-05T00:43:12.107Z,9.279917
2022-10-05T00:44:12.062Z,9.279927
2022-10-05T00:45:12.041Z,9.279888
2022-10-05T00:46:12.077Z,9.279932
2022-10-05T00:47:12.000Z,9.279979
2022-10-05T00:48:12.013Z,9.279958
2022-10-05T00:49:11.961Z,9.279942
2022-10-05T00:50:11.941Z,9.279940
2022-10-05T00:51:11.942Z,9.279918
2022-10-05T00:52:11.918Z,9.279974
2022-10-05T00:53:11.923Z,9.280011
2022-10-05T00:54:17.337Z,9.280003
2022-10-05T00:55:13.860Z,9.280017
2022-10-05T00:56:11.844Z,9.279902
2022-10-05T00:57:11.827Z,9.279917
2022-10-05T00:58:11.837Z,9.279922
2022-10-05T00:59:11.792Z,9.279965
2022-10-05T01:00:11.774Z,9.279948
2022-10-05T01:01:11.806Z,9.279982
2022-10-05T01:02:11.808Z,9.280000
2022-10-05T01:03:11.831Z,9.279975
2022-10-05T01:04:11.703Z,9.279959
2022-10-05T01:05:11.688Z,9.279934
2022-10-05T01:06:11.672Z,9.279990
2022-10-05T01:07:11.648Z,9.279964
2022-10-05T01:08:11.657Z,9.279935
2022-10-05T01:09:11.619Z,9.279977
2022-10-05T01:10:11.603Z,9.279974
2022-10-05T01:11:11.575Z,9.279978
2022-10-05T01:12:11.561Z,9.279967
2022-10-05T01:13:11.575Z,9.279954
2022-10-05T01:14:11.530Z,9.280000
2022-10-05T01:15:11.508Z,9.279951
2022-10-05T01:16:11.553Z,9.279997
2022-10-05T01:17:11.467Z,9.280047
2022-10-05T01:18:11.481Z,9.280024
2022-10-05T01:19:11.435Z,9.280136
2022-10-05T01:20:11.418Z,9.280071
2022-10-05T01:21:11.401Z,9.279948
2022-10-05T01:22:11.385Z,9.279902
2022-10-05T01:23:11.394Z,9.280046
2022-10-05T01:24:11.350Z,9.280017
2022-10-05T01:25:11.330Z,9.279988
2022-10-05T01:26:11.314Z,9.279973
2022-10-05T01:27:11.293Z,9.279946
2022-10-05T01:28:11.360Z,9.279895
2022-10-05T01:29:11.257Z,9.279922
2022-10-05T01:30:11.249Z,9.280047
2022-10-05T01:31:11.264Z,9.279945
2022-10-05T01:32:11.210Z,9.280010
2022-10-05T01:33:11.217Z,9.279913
2022-10-05T01:34:11.697Z,9.279781
2022-10-05T01:35:12.152Z,9.279910
2022-10-05T01:36:11.135Z,9.279938
2022-10-05T01:37:11.115Z,9.279993
2022-10-05T01:38:11.123Z,9.279911
2022-10-05T01:39:11.080Z,9.279911
2022-10-05T01:40:11.069Z,9.280031
2022-10-05T01:41:11.039Z,9.280005
2022-10-05T01:42:11.051Z,9.280085
2022-10-05T01:43:11.030Z,9.280011
2022-10-05T01:44:10.985Z,9.279912
2022-10-05T01:45:10.970Z,9.279946
2022-10-05T01:46:10.994Z,9.279990
2022-10-05T01:47:10.937Z,9.279915
2022-10-05T01:48:10.942Z,9.279940
2022-10-05T01:49:10.903Z,9.279982
2022-10-05T01:50:10.874Z,9.279981
2022-10-05T01:51:10.889Z,9.279953
2022-10-05T01:52:10.841Z,9.279996
2022-10-05T01:53:10.844Z,9.280006
2022-10-05T01:54:10.804Z,9.279968
2022-10-05T01:55:10.787Z,9.279961
2022-10-05T01:56:10.764Z,9.279923
2022-10-05T01:57:10.754Z,9.279868
2022-10-05T01:58:10.775Z,9.279947
2022-10-05T01:59:10.715Z,9.280043
2022-10-05T02:00:10.694Z,9.279936
2022-10-05T02:01:10.704Z,9.279917
2022-10-05T02:02:10.752Z,9.279817
2022-10-05T02:03:10.672Z,9.280006
2022-10-05T02:04:10.620Z,9.280020
2022-10-05T02:05:10.602Z,9.279876
2022-10-05T02:06:10.587Z,9.279893
2022-10-05T02:07:10.568Z,9.279917
2022-10-05T02:08:10.575Z,9.280045
2022-10-05T02:09:10.531Z,9.279954
2022-10-05T02:10:10.517Z,9.279883
2022-10-05T02:11:10.488Z,9.280022
2022-10-05T02:12:10.476Z,9.280057
2022-10-05T02:13:10.487Z,9.280087
2022-10-05T02:14:10.441Z,9.279857
2022-10-05T02:15:10.422Z,9.279972
2022-10-05T02:16:10.448Z,9.279850
2022-10-05T02:17:10.387Z,9.279743
2022-10-05T02:18:10.402Z,9.279861
2022-10-05T02:19:10.352Z,9.280095
2022-10-05T02:20:10.332Z,9.280177
2022-10-05T02:21:10.319Z,9.280171
2022-10-05T02:22:10.302Z,9.279872
2022-10-05T02:23:10.399Z,9.279842
2022-10-05T02:24:10.277Z,9.279858
2022-10-05T02:25:10.254Z,9.279784
2022-10-05T02:26:10.228Z,9.279857
2022-10-05T02:27:10.209Z,9.279864
2022-10-05T02:28:10.287Z,9.279862
2022-10-05T02:29:10.173Z,9.279883
2022-10-05T02:30:14.204Z,9.279981
2022-10-05T02:31:12.174Z,9.279895
2022-10-05T02:32:10.129Z,9.280017
2022-10-05T02:33:10.134Z,9.279951
2022-10-05T02:34:10.090Z,9.280096
2022-10-05T02:35:10.072Z,9.279934
2022-10-05T02:36:10.057Z,9.279900
2022-10-05T02:37:10.035Z,9.279943
2022-10-05T02:38:10.047Z,9.279952
2022-10-05T02:39:10.004Z,9.279922
2022-10-05T02:40:09.988Z,9.279887
2022-10-05T02:41:09.971Z,9.279873
2022-10-05T02:42:09.951Z,9.279815
2022-10-05T02:43:09.959Z,9.279869
2022-10-05T02:44:09.922Z,9.279840
2022-10-05T02:45:09.905Z,9.280076
2022-10-05T02:46:09.958Z,9.280046
2022-10-05T02:47:09.867Z,9.279966
2022-10-05T02:48:09.878Z,9.280068
2022-10-05T02:49:09.833Z,9.280163
2022-10-05T02:50:09.831Z,9.280089
2022-10-05T02:51:09.798Z,9.280127
2022-10-05T02:52:09.781Z,9.279900
2022-10-05T02:53:09.788Z,9.279699
2022-10-05T02:54:09.754Z,9.279931
2022-10-05T02:55:09.728Z,9.279859
2022-10-05T02:56:09.715Z,9.279997
2022-10-05T02:57:09.693Z,9.279950
2022-10-05T02:58:09.702Z,9.279979
2022-10-05T02:59:09.666Z,9.279869
2022-10-05T03:00:09.658Z,9.280005
2022-10-05T03:01:09.689Z,9.280002
2022-10-05T03:02:09.678Z,9.280064
2022-10-05T03:03:09.624Z,9.280051
2022-10-05T03:04:09.574Z,9.280041
2022-10-05T03:05:09.557Z,9.280049
2022-10-05T03:06:09.589Z,9.280023
2022-10-05T03:07:09.527Z,9.279996
2022-10-05T03:08:09.537Z,9.280082
2022-10-05T03:09:09.494Z,9.280042
2022-10-05T03:10:09.474Z,9.280065
2022-10-05T03:11:09.448Z,9.279978
2022-10-05T03:12:09.438Z,9.279975
2022-10-05T03:13:09.451Z,9.280055
2022-10-05T03:14:09.407Z,9.280095
2022-10-05T03:15:09.386Z,9.280095
2022-10-05T03:16:09.423Z,9.280042
2022-10-05T03:17:09.346Z,9.280046
2022-10-05T03:18:09.362Z,9.280004
2022-10-05T03:19:09.313Z,9.279990
2022-10-05T03:20:09.308Z,9.279998
2022-10-05T03:21:09.276Z,9.280025
2022-10-05T03:22:09.275Z,9.280036
2022-10-05T03:23:09.308Z,9.279952
2022-10-05T03:24:09.237Z,9.280035
2022-10-05T03:25:09.205Z,9.280036
2022-10-05T03:26:09.196Z,9.280079
2022-10-05T03:27:09.172Z,9.280057
2022-10-05T03:28:09.241Z,9.280023
2022-10-05T03:29:09.137Z,9.280084
2022-10-05T03:30:09.119Z,9.280087
2022-10-05T03:31:09.140Z,9.280031
2022-10-05T03:32:09.080Z,9.280007
2022-10-05T03:33:09.087Z,9.279971
2022-10-05T03:34:09.045Z,9.280072
2022-10-05T03:35:09.025Z,9.280102
2022-10-05T03:36:09.007Z,9.280015
2022-10-05T03:37:08.990Z,9.279969
2022-10-05T03:38:08.995Z,9.279920
2022-10-05T03:39:08.953Z,9.279924
2022-10-05T03:40:08.938Z,9.280025
2022-10-05T03:41:08.919Z,9.280016
2022-10-05T03:42:08.899Z,9.279982
2022-10-05T03:43:08.910Z,9.279880
2022-10-05T03:44:08.858Z,9.280029
2022-10-05T03:45:08.851Z,9.280039
2022-10-05T03:46:08.870Z,9.280031
2022-10-05T03:47:08.807Z,9.279941
2022-10-05T03:48:08.813Z,9.280101
2022-10-05T03:49:08.768Z,9.279983
2022-10-05T03:50:08.750Z,9.280014
2022-10-05T03:51:08.728Z,9.279945
2022-10-05T03:52:08.717Z,9.279962
2022-10-05T03:53:08.720Z,9.279754
2022-10-05T03:54:08.672Z,9.279666
2022-10-05T03:55:08.658Z,9.279805
2022-10-05T03:56:08.647Z,9.279966
2022-10-05T03:57:08.626Z,9.279934
2022-10-05T03:58:08.635Z,9.279938
2022-10-05T03:59:08.649Z,9.279923
2022-10-05T04:00:08.576Z,9.280001
2022-10-05T04:01:08.578Z,9.279922
2022-10-05T04:02:08.585Z,9.280021
2022-10-05T04:03:09.544Z,9.280020
2022-10-05T04:04:08.495Z,9.279961
2022-10-05T04:05:08.478Z,9.279860
2022-10-05T04:06:08.457Z,9.279825
2022-10-05T04:07:08.440Z,9.279925
2022-10-05T04:08:08.453Z,9.279913
2022-10-05T04:09:08.412Z,9.279905
2022-10-05T04:10:08.394Z,9.279897
2022-10-05T04:11:08.375Z,9.279853
2022-10-05T04:12:08.356Z,9.279945
2022-10-05T04:13:08.360Z,9.279901
2022-10-05T04:14:08.316Z,9.279872
2022-10-05T04:15:08.302Z,9.279875
2022-10-05T04:16:08.313Z,9.279862
2022-10-05T04:17:08.266Z,9.279937
2022-10-05T04:18:08.277Z,9.280052
2022-10-05T04:19:08.229Z,9.280016
2022-10-05T04:20:08.213Z,9.280023
2022-10-05T04:21:08.194Z,9.279943
2022-10-05T04:22:08.176Z,9.279962
2022-10-05T04:23:08.188Z,9.279905
2022-10-05T04:24:08.149Z,9.279814
2022-10-05T04:25:08.153Z,9.279730
2022-10-05T04:26:08.107Z,9.279892
2022-10-05T04:27:08.086Z,9.279775
2022-10-05T04:28:09.133Z,9.279902
2022-10-05T04:29:08.059Z,9.279901
2022-10-05T04:30:08.046Z,9.279837
2022-10-05T04:31:08.047Z,9.279917
2022-10-05T04:32:08.004Z,9.279990
2022-10-05T04:33:07.983Z,9.279838
2022-10-05T04:34:08.001Z,9.279824
2022-10-05T04:35:07.953Z,9.279787
2022-10-05T04:36:07.934Z,9.279876
2022-10-05T04:37:07.914Z,9.279898
2022-10-05T04:38:07.923Z,9.279898
2022-10-05T04:39:07.878Z,9.279953
2022-10-05T04:40:07.860Z,9.279896
2022-10-05T04:41:07.846Z,9.279944
2022-10-05T04:42:07.828Z,9.279961
2022-10-05T04:43:07.839Z,9.279948
2022-10-05T04:44:07.791Z,9.279980
2022-10-05T04:45:07.772Z,9.279972
2022-10-05T04:46:07.758Z,9.279922
2022-10-05T04:47:07.773Z,9.279873
2022-10-05T04:48:07.753Z,9.279887
2022-10-05T04:49:07.706Z,9.279913
2022-10-05T04:50:07.690Z,9.279880
2022-10-05T04:51:07.670Z,9.279922
2022-10-05T04:52:07.650Z,9.279941
2022-10-05T04:53:07.653Z,9.280029
2022-10-05T04:54:08.617Z,9.279916
2022-10-05T04:55:07.595Z,9.279942
2022-10-05T04:56:07.571Z,9.279953
2022-10-05T04:57:08.565Z,9.279959
2022-10-05T04:58:07.570Z,9.279907
2022-10-05T04:59:07.536Z,9.279905
2022-10-05T05:00:07.504Z,9.279920
2022-10-05T05:01:07.585Z,9.279931
2022-10-05T05:02:07.475Z,9.279969
2022-10-05T05:03:07.481Z,9.279934
2022-10-05T05:04:07.487Z,9.279935
2022-10-05T05:05:07.420Z,9.279992
2022-10-05T05:06:18.462Z,9.279899
2022-10-05T05:07:09.384Z,9.280021
2022-10-05T05:08:07.395Z,9.279984
2022-10-05T05:09:07.347Z,9.279877
2022-10-05T05:10:07.329Z,9.279894
2022-10-05T05:11:07.309Z,9.279879
2022-10-05T05:12:07.297Z,9.279930
2022-10-05T05:13:07.302Z,9.279821
2022-10-05T05:14:07.258Z,9.279945
2022-10-05T05:15:07.241Z,9.279833
2022-10-05T05:16:07.259Z,9.279922
2022-10-05T05:17:12.198Z,9.280025
2022-10-05T05:18:09.216Z,9.280021
2022-10-05T05:19:07.167Z,9.279965
2022-10-05T05:20:07.152Z,9.279940
2022-10-05T05:21:07.135Z,9.280013
2022-10-05T05:22:07.115Z,9.279966
2022-10-05T05:23:07.124Z,9.280064
2022-10-05T05:24:07.077Z,9.279910
2022-10-05T05:25:07.062Z,9.279921
2022-10-05T05:26:07.040Z,9.279948
2022-10-05T05:27:07.037Z,9.279992
2022-10-05T05:28:07.066Z,9.280008
2022-10-05T05:29:06.992Z,9.279984
2022-10-05T05:30:06.980Z,9.279994
2022-10-05T05:31:07.033Z,9.280017
2022-10-05T05:32:06.934Z,9.280123
2022-10-05T05:33:06.961Z,9.280015
2022-10-05T05:34:06.900Z,9.279966
2022-10-05T05:35:06.882Z,9.279897
2022-10-05T05:36:06.859Z,9.279876
2022-10-05T05:37:06.854Z,9.279886
2022-10-05T05:38:06.853Z,9.279969
2022-10-05T05:39:06.808Z,9.280066
2022-10-05T05:40:06.793Z,9.280169
2022-10-05T05:41:06.771Z,9.280040
2022-10-05T05:42:06.752Z,9.279984
2022-10-05T05:43:06.769Z,9.280011
2022-10-05T05:44:06.718Z,9.279840
2022-10-05T05:45:06.700Z,9.279903
2022-10-05T05:46:06.680Z,9.279972
2022-10-05T05:47:07.297Z,9.279938
2022-10-05T05:48:06.675Z,9.280012
2022-10-05T05:49:06.626Z,9.279993
2022-10-05T05:50:07.802Z,9.279930
2022-10-05T05:51:07.589Z,9.279915
2022-10-05T05:52:06.570Z,9.279914
2022-10-05T05:53:06.578Z,9.279984
2022-10-05T05:54:06.534Z,9.280006
2022-10-05T05:55:06.515Z,9.280033
2022-10-05T05:56:06.495Z,9.279967
2022-10-05T05:57:06.479Z,9.280040
2022-10-05T05:58:06.484Z,9.280145
2022-10-05T05:59:06.440Z,9.279942
2022-10-05T06:00:06.436Z,9.279862
2022-10-05T06:01:06.401Z,9.279862
2022-10-05T06:02:06.437Z,9.280001
2022-10-05T06:03:06.496Z,9.279998
2022-10-05T06:04:06.343Z,9.279963
2022-10-05T06:05:06.325Z,9.279913
2022-10-05T06:06:06.334Z,9.280025
2022-10-05T06:07:06.289Z,9.279910
2022-10-05T06:08:06.298Z,9.279966
2022-10-05T06:09:06.241Z,9.279910
2022-10-05T06:10:07.228Z,9.279957
2022-10-05T06:11:06.209Z,9.279928
2022-10-05T06:12:06.191Z,9.279974
2022-10-05T06:13:06.191Z,9.280002
2022-10-05T06:14:06.146Z,9.279985
2022-10-05T06:15:06.126Z,9.279922
2022-10-05T06:16:06.199Z,9.279898
2022-10-05T06:17:06.079Z,9.279963
2022-10-05T06:18:06.091Z,9.279868
2022-10-05T06:19:06.044Z,9.279914
2022-10-05T06:20:06.023Z,9.279930
2022-10-05T06:21:06.007Z,9.279991
2022-10-05T06:22:05.986Z,9.279935
2022-10-05T06:23:05.994Z,9.280048
2022-10-05T06:24:05.968Z,9.279942
2022-10-05T06:25:05.920Z,9.279911
2022-10-05T06:26:10.414Z,9.279909
2022-10-05T06:27:06.881Z,9.279902
2022-10-05T06:28:05.896Z,9.279906
2022-10-05T06:29:05.871Z,9.279962
2022-10-05T06:30:05.816Z,9.279930
2022-10-05T06:31:05.800Z,9.279897
2022-10-05T06:32:05.853Z,9.279855
2022-10-05T06:33:05.757Z,9.280011
2022-10-05T06:34:05.764Z,9.279894
2022-10-05T06:35:05.717Z,9.279869
2022-10-05T06:36:05.694Z,9.279964
2022-10-05T06:37:05.674Z,9.280038
2022-10-05T06:38:05.682Z,9.280022
2022-10-05T06:39:05.633Z,9.279993
2022-10-05T06:40:05.619Z,9.279922
2022-10-05T06:41:05.598Z,9.279955
2022-10-05T06:42:05.574Z,9.279923
2022-10-05T06:43:05.580Z,9.279822
2022-10-05T06:44:05.535Z,9.279846
2022-10-05T06:45:05.514Z,9.279897
2022-10-05T06:46:05.583Z,9.279904
2022-10-05T06:47:05.471Z,9.279963
2022-10-05T06:48:05.792Z,9.280012
2022-10-05T06:49:06.422Z,9.279958
2022-10-05T06:50:06.406Z,9.279963
2022-10-05T06:51:05.387Z,9.279933
2022-10-05T06:52:05.363Z,9.279962
2022-10-05T06:53:05.368Z,9.280049
2022-10-05T06:54:05.323Z,9.280067
2022-10-05T06:55:05.301Z,9.279990
2022-10-05T06:56:05.283Z,9.279920
2022-10-05T06:57:05.263Z,9.280140
2022-10-05T06:58:05.268Z,9.280043
2022-10-05T06:59:05.223Z,9.280070
2022-10-05T07:00:05.203Z,9.279985
2022-10-05T07:01:05.258Z,9.280012
2022-10-05T07:02:05.204Z,9.280072
2022-10-05T07:03:05.170Z,9.280107
2022-10-05T07:04:05.123Z,9.279980
2022-10-05T07:05:05.102Z,9.280000
2022-10-05T07:06:05.078Z,9.280046
2022-10-05T07:07:05.060Z,9.280116
2022-10-05T07:08:05.073Z,9.279995
2022-10-05T07:09:05.026Z,9.280076
2022-10-05T07:10:05.104Z,9.280214
2022-10-05T07:11:04.978Z,9.279990
2022-10-05T07:12:05.877Z,9.279931
2022-10-05T07:13:05.964Z,9.279991
2022-10-05T07:14:04.913Z,9.280117
2022-10-05T07:15:04.888Z,9.280098
2022-10-05T07:16:04.893Z,9.280077
2022-10-05T07:17:04.851Z,9.280016
2022-10-05T07:18:04.862Z,9.280087
2022-10-05T07:19:04.806Z,9.280281
2022-10-05T07:20:04.815Z,9.280097
2022-10-05T07:21:04.775Z,9.280099
2022-10-05T07:22:04.811Z,9.280104
2022-10-05T07:23:04.755Z,9.279943
2022-10-05T07:24:04.703Z,9.280003
2022-10-05T07:25:04.683Z,9.279940
2022-10-05T07:26:04.665Z,9.280096
2022-10-05T07:27:04.647Z,9.280085
2022-10-05T07:28:04.710Z,9.280032
2022-10-05T07:29:04.607Z,9.279988
2022-10-05T07:30:04.604Z,9.280036
2022-10-05T07:31:04.620Z,9.280034
2022-10-05T07:32:04.545Z,9.280093
2022-10-05T07:33:04.550Z,9.280061
2022-10-05T07:34:04.502Z,9.279944
2022-10-05T07:35:04.487Z,9.280028
2022-10-05T07:36:04.479Z,9.280050
2022-10-05T07:37:04.446Z,9.280152
2022-10-05T07:38:04.450Z,9.279992
2022-10-05T07:39:04.406Z,9.279896
2022-10-05T07:40:04.390Z,9.279975
2022-10-05T07:41:04.381Z,9.280051
2022-10-05T07:42:04.464Z,9.280099
2022-10-05T07:43:04.351Z,9.279999
2022-10-05T07:44:05.832Z,9.279960
2022-10-05T07:45:04.288Z,9.279997
2022-10-05T07:46:04.310Z,9.280025
2022-10-05T07:47:04.245Z,9.280101
2022-10-05T07:48:04.257Z,9.280061
2022-10-05T07:49:04.209Z,9.280030
2022-10-05T07:50:04.189Z,9.280064
2022-10-05T07:51:04.167Z,9.280076
2022-10-05T07:52:04.149Z,9.280190
2022-10-05T07:53:04.153Z,9.280206
2022-10-05T07:54:04.109Z,9.280268
2022-10-05T07:55:04.088Z,9.280209
2022-10-05T07:56:04.069Z,9.280156
2022-10-05T07:57:04.048Z,9.280079
2022-10-05T07:58:04.060Z,9.280068
2022-10-05T07:59:05.009Z,9.279920
2022-10-05T08:00:03.990Z,9.279904
2022-10-05T08:01:03.972Z,9.279831
2022-10-05T08:02:04.054Z,9.279962
2022-10-05T08:03:04.011Z,9.279866
2022-10-05T08:04:03.917Z,9.279932
2022-10-05T08:05:03.896Z,9.279838
2022-10-05T08:06:03.876Z,9.280015
2022-10-05T08:07:04.857Z,9.279869
2022-10-05T08:08:03.870Z,9.280072
2022-10-05T08:09:03.822Z,9.280088
2022-10-05T08:10:03.803Z,9.280063
2022-10-05T08:11:03.779Z,9.280068
2022-10-05T08:12:03.766Z,9.280232
2022-10-05T08:13:03.770Z,9.280068
2022-10-05T08:14:03.722Z,9.279899
2022-10-05T08:15:03.710Z,9.279930
2022-10-05T08:16:03.731Z,9.279943
2022-10-05T08:17:03.667Z,9.279999
2022-10-05T08:18:03.674Z,9.279989
2022-10-05T08:19:03.630Z,9.279975
2022-10-05T08:20:03.610Z,9.279939
2022-10-05T08:21:03.595Z,9.279860
2022-10-05T08:22:03.576Z,9.280000
2022-10-05T08:23:03.586Z,9.280020
2022-10-05T08:24:03.539Z,9.280171
2022-10-05T08:25:03.516Z,9.280037
2022-10-05T08:26:03.501Z,9.279896
2022-10-05T08:27:03.478Z,9.279819
2022-10-05T08:28:03.548Z,9.279843
2022-10-05T08:29:03.443Z,9.279943
2022-10-05T08:30:03.421Z,9.279887
2022-10-05T08:31:03.443Z,9.279861
2022-10-05T08:32:03.382Z,9.279842
2022-10-05T08:33:03.391Z,9.279760
2022-10-05T08:34:03.342Z,9.279819
2022-10-05T08:35:03.326Z,9.279869
2022-10-05T08:36:03.304Z,9.279894
2022-10-05T08:37:03.280Z,9.279909
2022-10-05T08:38:03.295Z,9.279870
2022-10-05T08:39:03.242Z,9.279967
2022-10-05T08:40:03.223Z,9.279857
2022-10-05T08:41:03.201Z,9.279860
2022-10-05T08:42:03.185Z,9.279851
2022-10-05T08:43:03.189Z,9.279903
2022-10-05T08:44:03.141Z,9.280001
2022-10-05T08:45:03.121Z,9.279910
2022-10-05T08:46:03.226Z,9.279932
2022-10-05T08:47:03.076Z,9.279894
2022-10-05T08:48:03.083Z,9.279878
2022-10-05T08:49:03.035Z,9.280098
2022-10-05T08:50:03.017Z,9.280078
2022-10-05T08:51:02.991Z,9.279948
2022-10-05T08:52:02.973Z,9.279953
2022-10-05T08:53:02.975Z,9.279995
2022-10-05T08:54:02.923Z,9.279925
2022-10-05T08:55:02.903Z,9.279992
2022-10-05T08:56:02.881Z,9.280026
2022-10-05T08:57:02.856Z,9.280041
2022-10-05T08:58:02.864Z,9.280042
2022-10-05T08:59:02.821Z,9.279925
2022-10-05T09:00:02.794Z,9.279922
2022-10-05T09:01:02.794Z,9.279933
2022-10-05T09:02:02.749Z,9.279949
2022-10-05T09:03:02.810Z,9.279925
2022-10-05T09:04:02.718Z,9.279998
2022-10-05T09:05:02.692Z,9.279972
2022-10-05T09:06:02.664Z,9.279927
2022-10-05T09:07:02.644Z,9.279914
2022-10-05T09:08:02.647Z,9.279944
2022-10-05T09:09:02.604Z,9.279983
2022-10-05T09:10:02.591Z,9.279939
2022-10-05T09:11:02.574Z,9.279948
2022-10-05T09:12:02.539Z,9.279976
2022-10-05T09:13:02.543Z,9.279970
2022-10-05T09:14:02.497Z,9.279924
2022-10-05T09:15:24.246Z,9.279946
2022-10-05T09:16:04.504Z,9.279911
2022-10-05T09:17:02.440Z,9.279914
2022-10-05T09:18:02.439Z,9.279939
2022-10-05T09:19:02.394Z,9.279923
2022-10-05T09:20:02.370Z,9.279919
2022-10-05T09:21:02.350Z,9.279878
2022-10-05T09:22:02.332Z,9.279883
2022-10-05T09:23:02.333Z,9.279911
2022-10-05T09:24:02.285Z,9.279920
2022-10-05T09:25:02.263Z,9.279872
2022-10-05T09:26:02.247Z,9.279910
2022-10-05T09:27:02.226Z,9.279958
2022-10-05T09:28:02.272Z,9.279933
2022-10-05T09:29:02.180Z,9.279954
2022-10-05T09:30:02.154Z,9.279920
2022-10-05T09:31:02.161Z,9.279914
2022-10-05T09:32:02.113Z,9.279956
2022-10-05T09:33:02.119Z,9.279882
2022-10-05T09:34:02.066Z,9.279940
2022-10-05T09:35:02.051Z,9.279863
2022-10-05T09:36:02.029Z,9.279920
2022-10-05T09:37:02.011Z,9.279956
2022-10-05T09:38:02.017Z,9.279929
2022-10-05T09:39:01.953Z,9.279995
2022-10-05T09:40:02.940Z,9.279998
2022-10-05T09:41:01.923Z,9.279918
2022-10-05T09:42:01.896Z,9.280024
2022-10-05T09:43:01.939Z,9.279978
2022-10-05T09:44:01.854Z,9.279916
2022-10-05T09:45:01.834Z,9.279922
2022-10-05T09:46:01.840Z,9.279901
2022-10-05T09:47:01.789Z,9.279909
2022-10-05T09:48:01.795Z,9.279894
2022-10-05T09:49:01.742Z,9.279785
2022-10-05T09:50:01.788Z,9.279906
2022-10-05T09:51:01.697Z,9.279947
2022-10-05T09:52:01.679Z,9.279947
2022-10-05T09:53:01.686Z,9.279984
2022-10-05T09:54:01.633Z,9.279871
2022-10-05T09:55:01.643Z,9.279899
2022-10-05T09:56:01.590Z,9.279843
2022-10-05T09:57:01.567Z,9.279922
2022-10-05T09:58:01.572Z,9.279908
2022-10-05T09:59:01.525Z,9.279948
2022-10-05T10:00:01.547Z,9.279922
2022-10-05T10:01:09.481Z,9.279890
2022-10-05T10:02:03.472Z,9.279941
2022-10-05T10:03:02.614Z,9.279964
2022-10-05T10:04:01.423Z,9.279914
2022-10-05T10:05:01.392Z,9.279875
2022-10-05T10:06:01.389Z,9.279931
2022-10-05T10:07:01.355Z,9.279984
2022-10-05T10:08:01.361Z,9.279981
2022-10-05T10:09:02.313Z,9.279822
2022-10-05T10:10:01.287Z,9.279952
2022-10-05T10:11:01.269Z,9.279963
2022-10-05T10:12:01.243Z,9.279881
2022-10-05T10:13:01.247Z,9.279878
2022-10-05T10:14:01.199Z,9.279765
2022-10-05T10:15:03.018Z,9.279801
2022-10-05T10:16:02.243Z,9.279860
2022-10-05T10:17:01.135Z,9.279976
2022-10-05T10:18:01.145Z,9.279943
2022-10-05T10:19:01.102Z,9.279801
2022-10-05T10:20:01.076Z,9.279872
2022-10-05T10:21:01.053Z,9.279899
2022-10-05T10:22:01.036Z,9.279887
2022-10-05T10:23:01.038Z,9.279959
2022-10-05T10:24:00.992Z,9.279997
2022-10-05T10:25:00.969Z,9.279923
2022-10-05T10:26:00.949Z,9.279656
2022-10-05T10:27:00.929Z,9.279641
2022-10-05T10:28:01.037Z,9.279769
2022-10-05T10:29:00.884Z,9.279827
2022-10-05T10:30:00.859Z,9.279919
2022-10-05T10:31:00.959Z,9.279849
2022-10-05T10:32:00.814Z,9.279822
2022-10-05T10:33:00.821Z,9.279834
2022-10-05T10:34:00.769Z,9.279907
2022-10-05T10:35:00.748Z,9.280009
2022-10-05T10:36:03.105Z,9.279912
2022-10-05T10:37:01.702Z,9.279883
2022-10-05T10:38:00.709Z,9.279912
2022-10-05T10:39:00.662Z,9.279942
2022-10-05T10:40:00.641Z,9.279870
2022-10-05T10:41:00.619Z,9.279873
2022-10-05T10:42:00.599Z,9.280018
2022-10-05T10:43:00.613Z,9.279964
2022-10-05T10:44:00.553Z,9.279943
2022-10-05T10:45:00.536Z,9.279951
2022-10-05T10:46:00.572Z,9.279979
2022-10-05T10:47:00.554Z,9.279989
2022-10-05T10:48:00.501Z,9.279973
2022-10-05T10:49:00.446Z,9.279875
2022-10-05T10:50:01.436Z,9.279796
2022-10-05T10:51:00.414Z,9.279828
2022-10-05T10:52:00.391Z,9.279878
2022-10-05T10:53:00.396Z,9.279875
2022-10-05T10:54:00.341Z,9.279853
2022-10-05T10:55:01.327Z,9.279939
2022-10-05T10:56:00.306Z,9.279942
2022-10-05T10:57:00.285Z,9.280088
2022-10-05T10:58:00.296Z,9.280036
2022-10-05T10:59:00.243Z,9.279961
2022-10-05T11:00:00.229Z,9.280027
2022-10-05T11:01:00.203Z,9.279888
2022-10-05T11:02:00.237Z,9.279928
2022-10-05T11:03:00.261Z,9.279970
2022-10-05T11:04:00.142Z,9.279893
2022-10-05T11:05:00.120Z,9.279928
2022-10-05T11:06:00.267Z,9.279926
2022-10-05T11:07:00.092Z,9.280025
2022-10-05T11:08:00.088Z,9.279963
2022-10-05T11:09:00.036Z,9.279965
2022-10-05T11:10:00.014Z,9.279943
2022-10-05T11:10:59.993Z,9.279913
2022-10-05T11:11:59.991Z,9.279886
2022-10-05T11:12:59.949Z,9.280025
2022-10-05T11:13:59.961Z,9.280171
2022-10-05T11:14:59.914Z,9.280122
2022-10-05T11:15:59.962Z,9.280038
2022-10-05T11:16:59.872Z,9.279961
2022-10-05T11:17:59.881Z,9.279947
2022-10-05T11:18:59.831Z,9.279946
2022-10-05T11:20:04.133Z,9.279916
2022-10-05T11:21:00.794Z,9.279904
2022-10-05T11:21:59.773Z,9.280132
2022-10-05T11:22:59.755Z,9.280268
2022-10-05T11:23:59.760Z,9.280069
2022-10-05T11:24:59.712Z,9.280008
2022-10-05T11:25:59.694Z,9.280006
2022-10-05T11:26:59.675Z,9.280005
2022-10-05T11:27:59.690Z,9.280058
2022-10-05T11:28:59.661Z,9.280004
2022-10-05T11:29:59.619Z,9.279923
2022-10-05T11:30:59.640Z,9.279929
2022-10-05T11:31:59.575Z,9.279937
2022-10-05T11:32:59.557Z,9.279993
2022-10-05T11:33:59.567Z,9.280072
2022-10-05T11:34:59.520Z,9.280030
2022-10-05T11:35:59.497Z,9.280027
2022-10-05T11:36:59.479Z,9.280087
2022-10-05T11:37:59.462Z,9.280087
2022-10-05T11:38:59.463Z,9.280063
2022-10-05T11:39:59.420Z,9.280078
2022-10-05T11:40:59.398Z,9.280183
2022-10-05T11:41:59.383Z,9.280132
2022-10-05T11:42:59.360Z,9.280068
2022-10-05T11:44:03.265Z,9.280042